createdAt,value
2018-10-05T00:02:25.947Z,83.20
2018-10-05T00:05:59.179Z,83.10
2018-10-05T00:09:32.420Z,83.00
2018-10-05T00:13:05.703Z,83.10
2018-10-05T00:16:38.925Z,83.30
2018-10-05T00:20:12.164Z,83.30
2018-10-05T00:23:45.397Z,83.30
2018-10-05T00:27:18.603Z,83.20
2018-10-05T00:30:51.840Z,83.20
2018-10-05T00:34:25.064Z,83.20
2018-10-05T00:37:58.341Z,83.40
2018-10-05T00:41:31.524Z,83.30
2018-10-05T00:45:05.144Z,83.50
2018-10-05T00:48:38.415Z,83.40
2018-10-05T00:52:11.628Z,83.50
2018-10-05T00:55:44.860Z,83.50
2018-10-05T00:59:18.083Z,83.40
2018-10-05T01:02:51.291Z,83.30
2018-10-05T01:06:24.589Z,83.20
2018-10-05T01:09:57.927Z,83.10
2018-10-05T01:13:31.159Z,82.90
2018-10-05T01:17:04.370Z,83.10
2018-10-05T01:20:37.607Z,83.40
2018-10-05T01:24:10.832Z,83.60
2018-10-05T01:27:44.037Z,83.70
2018-10-05T01:31:17.265Z,83.60
2018-10-05T01:34:50.480Z,83.30
2018-10-05T01:38:23.713Z,83.40
2018-10-05T01:41:56.921Z,83.50
2018-10-05T01:45:30.144Z,83.80
2018-10-05T01:49:03.411Z,84.10
2018-10-05T01:52:36.626Z,84.20
2018-10-05T01:56:09.856Z,84.40
2018-10-05T01:59:43.088Z,84.70
2018-10-05T02:03:16.287Z,84.80
2018-10-05T02:06:49.560Z,84.90
2018-10-05T02:10:22.793Z,84.90
2018-10-05T02:13:56.029Z,84.90
2018-10-05T02:17:29.244Z,85.00
2018-10-05T02:21:02.469Z,85.10
2018-10-05T02:24:35.693Z,85.30
2018-10-05T02:28:08.911Z,85.40
2018-10-05T02:31:42.137Z,85.60
2018-10-05T02:35:15.362Z,85.80
2018-10-05T02:38:48.589Z,85.90
2018-10-05T02:42:21.811Z,85.70
2018-10-05T02:45:55.033Z,85.50
2018-10-05T02:49:28.259Z,85.60
2018-10-05T02:53:01.476Z,85.50
2018-10-05T02:56:34.728Z,85.70
2018-10-05T03:00:18.036Z,85.60
2018-10-05T03:03:51.249Z,85.80
2018-10-05T03:07:24.904Z,86.00
2018-10-05T03:10:58.135Z,86.40
2018-10-05T03:14:31.367Z,86.50
2018-10-05T03:18:04.637Z,86.50
2018-10-05T03:21:37.864Z,87.10
2018-10-05T03:25:11.088Z,86.20
2018-10-05T03:28:44.467Z,86.60
2018-10-05T03:32:17.687Z,85.50
2018-10-05T03:35:50.921Z,85.50
2018-10-05T03:39:24.380Z,85.60
2018-10-05T03:42:57.615Z,85.40
2018-10-05T03:46:31.508Z,85.40
2018-10-05T03:50:04.728Z,85.30
2018-10-05T03:53:37.944Z,85.20
2018-10-05T03:57:11.173Z,85.40
2018-10-05T04:00:44.418Z,85.30
2018-10-05T04:04:17.631Z,85.40
2018-10-05T04:07:50.852Z,85.30
2018-10-05T04:11:24.101Z,84.90
2018-10-05T04:14:57.330Z,84.60
2018-10-05T04:18:30.561Z,84.60
2018-10-05T04:22:03.789Z,84.70
2018-10-05T04:25:37.012Z,85.00
2018-10-05T04:29:10.229Z,85.30
2018-10-05T04:32:43.447Z,85.30
2018-10-05T04:36:16.693Z,85.20
2018-10-05T04:39:49.913Z,85.20
2018-10-05T04:43:23.145Z,85.20
2018-10-05T04:46:56.392Z,85.00
2018-10-05T04:50:29.643Z,84.90
2018-10-05T04:54:02.875Z,84.90
2018-10-05T04:57:36.137Z,84.90
2018-10-05T05:01:09.364Z,85.00
2018-10-05T05:04:42.600Z,84.90
2018-10-05T05:08:15.827Z,85.00
2018-10-05T05:11:49.131Z,85.20
2018-10-05T05:15:22.464Z,85.50
2018-10-05T05:18:55.709Z,85.80
2018-10-05T05:22:29.045Z,85.90
2018-10-05T05:26:02.275Z,85.80
2018-10-05T05:29:35.732Z,85.60
2018-10-05T05:33:09.112Z,85.80
2018-10-05T05:36:42.360Z,85.70
2018-10-05T05:40:15.639Z,85.60
2018-10-05T05:43:48.907Z,85.80
2018-10-05T05:47:22.127Z,85.80
2018-10-05T05:50:55.368Z,85.60
2018-10-05T05:54:28.652Z,86.20
2018-10-05T05:58:01.859Z,85.00
2018-10-05T06:01:35.068Z,84.60
2018-10-05T06:05:08.296Z,84.20
2018-10-05T06:08:41.525Z,83.80
2018-10-05T06:12:16.568Z,83.90
2018-10-05T06:15:49.851Z,84.50
2018-10-05T06:19:23.080Z,84.80
2018-10-05T06:22:56.323Z,84.80
2018-10-05T06:26:29.910Z,84.80
2018-10-05T06:30:03.164Z,85.00
2018-10-05T06:33:36.439Z,84.80
2018-10-05T06:37:09.664Z,84.80
2018-10-05T06:40:42.900Z,84.80
2018-10-05T06:44:16.142Z,84.90
2018-10-05T06:47:49.387Z,84.70
2018-10-05T06:51:23.186Z,84.50
2018-10-05T06:54:56.436Z,84.30
2018-10-05T06:58:29.658Z,84.30
2018-10-05T07:02:02.870Z,84.30
2018-10-05T07:05:36.135Z,84.40
2018-10-05T07:09:09.380Z,84.30
2018-10-05T07:12:42.613Z,85.00
2018-10-05T07:16:15.828Z,84.20
2018-10-05T07:19:49.070Z,84.10
2018-10-05T07:23:22.368Z,83.90
2018-10-05T07:26:55.598Z,83.80
2018-10-05T07:30:28.823Z,83.60
2018-10-05T07:34:02.116Z,83.10
2018-10-05T07:37:35.352Z,82.70
2018-10-05T07:41:08.581Z,82.30
2018-10-05T07:44:41.847Z,81.10
2018-10-05T07:48:15.080Z,80.80
2018-10-05T07:51:48.331Z,80.20
2018-10-05T07:55:21.552Z,80.00
2018-10-05T07:58:54.812Z,79.70
2018-10-05T08:02:28.044Z,79.30
2018-10-05T08:06:01.263Z,78.80
2018-10-05T08:09:34.523Z,78.30
2018-10-05T08:13:07.759Z,77.80
2018-10-05T08:16:40.984Z,77.30
2018-10-05T08:20:14.224Z,76.90
2018-10-05T08:23:47.476Z,76.50
2018-10-05T08:27:21.508Z,76.00
2018-10-05T08:30:55.627Z,75.50
2018-10-05T08:34:30.338Z,74.90
2018-10-05T08:38:03.790Z,74.40
2018-10-05T08:41:38.350Z,73.90
2018-10-05T08:45:14.350Z,73.30
2018-10-05T08:48:47.664Z,72.80
2018-10-05T08:52:20.900Z,72.20
2018-10-05T08:55:54.222Z,71.60
2018-10-05T08:59:27.456Z,71.00
2018-10-05T09:03:00.688Z,70.40
2018-10-05T09:06:33.914Z,69.80
2018-10-05T09:10:07.565Z,69.30
2018-10-05T09:13:40.815Z,68.70
2018-10-05T09:17:14.044Z,68.20
2018-10-05T09:20:47.284Z,67.60
2018-10-05T09:24:20.523Z,67.00
2018-10-05T09:27:53.744Z,66.20
2018-10-05T09:31:26.997Z,65.80
2018-10-05T09:35:00.317Z,65.40
2018-10-05T09:38:33.573Z,64.50
2018-10-05T09:42:06.972Z,64.00
2018-10-05T09:45:40.191Z,63.60
2018-10-05T09:49:13.435Z,63.00
2018-10-05T09:52:46.672Z,62.80
2018-10-05T09:56:19.904Z,62.40
2018-10-05T09:59:53.238Z,62.00
2018-10-05T10:03:29.496Z,61.40
2018-10-05T10:07:02.687Z,60.90
2018-10-05T10:10:35.919Z,60.50
2018-10-05T10:14:09.181Z,60.30
2018-10-05T10:17:42.420Z,59.90
2018-10-05T10:21:15.746Z,59.30
2018-10-05T10:24:48.982Z,58.90
2018-10-05T10:28:22.245Z,58.50
2018-10-05T10:31:55.454Z,58.00
2018-10-05T10:35:28.709Z,57.10
2018-10-05T10:39:01.929Z,56.80
2018-10-05T10:42:35.167Z,56.60
2018-10-05T10:46:08.452Z,55.70
2018-10-05T10:49:41.704Z,55.00
2018-10-05T10:53:14.951Z,54.60
2018-10-05T10:56:48.199Z,54.10
2018-10-05T11:00:21.433Z,53.40
2018-10-05T11:03:54.670Z,53.00
2018-10-05T11:07:27.904Z,52.60
2018-10-05T11:11:01.173Z,52.30
2018-10-05T11:14:34.444Z,52.40
2018-10-05T11:18:07.672Z,52.00
2018-10-05T11:21:40.900Z,51.70
2018-10-05T11:25:14.117Z,51.20
2018-10-05T11:28:47.356Z,50.80
2018-10-05T11:32:20.585Z,51.00
2018-10-05T11:35:53.796Z,51.00
2018-10-05T11:39:27.043Z,50.80
2018-10-05T11:43:00.294Z,50.60
2018-10-05T11:46:33.512Z,50.50
2018-10-05T11:50:06.764Z,50.30
2018-10-05T11:53:39.993Z,50.20
2018-10-05T11:57:13.220Z,49.80
2018-10-05T12:00:46.454Z,49.50
2018-10-05T12:04:19.683Z,49.30
2018-10-05T12:07:52.971Z,49.20
2018-10-05T12:11:26.248Z,48.90
2018-10-05T12:14:59.512Z,48.70
2018-10-05T12:18:32.741Z,48.40
2018-10-05T12:22:06.086Z,48.40
2018-10-05T12:25:39.324Z,48.50
2018-10-05T12:29:12.541Z,48.40
2018-10-05T12:32:45.836Z,48.30
2018-10-05T12:36:19.083Z,48.00
2018-10-05T12:39:52.303Z,48.00
2018-10-05T12:43:25.555Z,47.80
2018-10-05T12:46:59.310Z,47.40
2018-10-05T12:50:32.560Z,47.50
2018-10-05T12:54:05.812Z,47.30
2018-10-05T12:57:39.036Z,47.50
2018-10-05T13:01:12.265Z,47.20
2018-10-05T13:04:45.518Z,47.20
2018-10-05T13:08:18.749Z,47.20
2018-10-05T13:11:51.980Z,46.90
2018-10-05T13:15:25.227Z,46.20
2018-10-05T13:18:58.456Z,46.20
2018-10-05T13:22:31.675Z,45.90
2018-10-05T13:26:04.912Z,46.00
2018-10-05T13:29:38.137Z,46.10
2018-10-05T13:33:11.371Z,46.10
2018-10-05T13:36:44.600Z,46.20
2018-10-05T13:40:17.819Z,46.30
2018-10-05T13:43:51.044Z,46.40
2018-10-05T13:47:24.275Z,46.60
2018-10-05T13:50:57.521Z,46.70
2018-10-05T13:54:30.768Z,46.70
2018-10-05T13:58:03.992Z,46.50
2018-10-05T14:01:37.236Z,46.50
2018-10-05T14:05:10.456Z,45.90
2018-10-05T14:08:43.718Z,45.70
2018-10-05T14:12:16.976Z,45.40
2018-10-05T14:15:50.217Z,45.40
2018-10-05T14:19:23.440Z,45.40
2018-10-05T14:22:56.896Z,45.20
2018-10-05T14:26:30.107Z,44.70
2018-10-05T14:30:03.346Z,44.30
2018-10-05T14:33:36.604Z,44.20
2018-10-05T14:37:09.852Z,44.00
2018-10-05T14:40:43.112Z,44.00
2018-10-05T14:44:16.340Z,43.40
2018-10-05T14:47:49.579Z,43.30
2018-10-05T14:51:22.843Z,43.70
2018-10-05T14:54:56.600Z,43.80
2018-10-05T14:58:29.835Z,44.00
2018-10-05T15:02:03.053Z,44.20
2018-10-05T15:05:36.305Z,44.30
2018-10-05T15:09:09.565Z,44.40
2018-10-05T15:12:42.865Z,44.60
2018-10-05T15:16:16.045Z,44.60
2018-10-05T15:19:49.335Z,44.70
2018-10-05T15:23:22.558Z,44.80
2018-10-05T15:26:55.793Z,45.00
2018-10-05T15:30:29.013Z,45.00
2018-10-05T15:34:02.618Z,45.40
2018-10-05T15:37:35.860Z,45.30
2018-10-05T15:41:09.178Z,45.40
2018-10-05T15:44:42.421Z,45.60
2018-10-05T15:48:15.659Z,45.90
2018-10-05T15:51:49.160Z,46.00
2018-10-05T15:55:22.396Z,46.10
2018-10-05T15:58:56.468Z,46.20
2018-10-05T16:02:29.692Z,46.00
2018-10-05T16:06:03.818Z,46.10
2018-10-05T16:09:37.076Z,46.20
2018-10-05T16:13:10.299Z,46.50
2018-10-05T16:16:43.516Z,46.60
2018-10-05T16:20:16.749Z,46.70
2018-10-05T16:23:50.688Z,46.80
2018-10-05T16:27:23.902Z,47.10
2018-10-05T16:30:57.157Z,47.20
2018-10-05T16:34:30.362Z,47.40
2018-10-05T16:38:03.599Z,48.10
2018-10-05T16:41:36.905Z,47.70
2018-10-05T16:45:10.101Z,47.90
2018-10-05T16:48:43.363Z,48.80
2018-10-05T16:52:16.583Z,48.40
2018-10-05T16:55:49.810Z,48.70
2018-10-05T16:59:24.036Z,49.00
2018-10-05T17:02:57.273Z,49.30
2018-10-05T17:06:30.887Z,49.50
2018-10-05T17:10:04.132Z,49.70
2018-10-05T17:13:37.369Z,50.10
2018-10-05T17:17:10.664Z,50.30
2018-10-05T17:20:43.830Z,50.70
2018-10-05T17:24:17.121Z,51.30
2018-10-05T17:27:50.347Z,51.90
2018-10-05T17:31:23.764Z,52.40
2018-10-05T17:34:57.074Z,52.50
2018-10-05T17:38:30.256Z,52.30
2018-10-05T17:42:03.496Z,52.30
2018-10-05T17:45:36.728Z,52.30
2018-10-05T17:49:10.005Z,52.10
2018-10-05T17:52:43.361Z,52.10
2018-10-05T17:56:16.622Z,51.90
2018-10-05T17:59:49.864Z,52.00
2018-10-05T18:03:23.153Z,51.70
2018-10-05T18:06:56.603Z,51.60
2018-10-05T18:10:29.828Z,51.60
2018-10-05T18:14:03.120Z,51.70
2018-10-05T18:17:36.335Z,51.70
2018-10-05T18:21:09.575Z,51.80
2018-10-05T18:24:42.829Z,51.90
2018-10-05T18:28:16.080Z,52.10
2018-10-05T18:31:49.320Z,52.30
2018-10-05T18:35:22.543Z,52.50
2018-10-05T18:38:55.793Z,52.60
2018-10-05T18:42:29.027Z,52.80
2018-10-05T18:46:02.269Z,53.00
2018-10-05T18:49:35.513Z,53.20
2018-10-05T18:53:08.749Z,53.40
2018-10-05T18:56:53.465Z,53.70
2018-10-05T19:00:26.692Z,53.70
2018-10-05T19:04:00.028Z,54.10
2018-10-05T19:07:33.279Z,55.00
2018-10-05T19:11:06.540Z,55.10
2018-10-05T19:14:39.784Z,55.70
2018-10-05T19:18:13.017Z,55.90
2018-10-05T19:21:46.265Z,56.10
2018-10-05T19:25:19.865Z,56.70
2018-10-05T19:28:53.107Z,57.10
2018-10-05T19:32:26.336Z,57.70
2018-10-05T19:35:59.648Z,57.70
2018-10-05T19:39:32.912Z,57.70
2018-10-05T19:43:06.177Z,58.30
2018-10-05T19:46:39.769Z,58.80
2018-10-05T19:50:12.994Z,59.20
2018-10-05T19:53:46.423Z,59.20
2018-10-05T19:57:19.617Z,59.40
2018-10-05T20:00:52.879Z,59.60
2018-10-05T20:04:26.137Z,60.10
2018-10-05T20:07:59.412Z,60.90
2018-10-05T20:11:33.298Z,61.30
2018-10-05T20:15:06.894Z,61.90
2018-10-05T20:18:40.940Z,61.70
2018-10-05T20:22:15.172Z,61.60
2018-10-05T20:25:48.431Z,61.60
2018-10-05T20:29:22.441Z,61.60
2018-10-05T20:32:55.796Z,61.50
2018-10-05T20:36:29.171Z,60.80
2018-10-05T20:40:02.752Z,61.50
2018-10-05T20:43:35.984Z,61.70
2018-10-05T20:47:09.887Z,61.80
2018-10-05T20:50:43.117Z,61.90
2018-10-05T20:54:17.108Z,62.20
2018-10-05T20:57:50.395Z,62.40
2018-10-05T21:01:24.149Z,62.70
2018-10-05T21:04:57.396Z,62.80
2018-10-05T21:08:30.644Z,63.10
2018-10-05T21:12:03.916Z,63.50
2018-10-05T21:15:37.152Z,63.70
2018-10-05T21:19:10.388Z,63.80
2018-10-05T21:22:43.619Z,64.10
2018-10-05T21:26:16.859Z,64.30
2018-10-05T21:29:50.105Z,64.40
2018-10-05T21:33:23.424Z,65.10
2018-10-05T21:36:56.628Z,65.50
2018-10-05T21:40:29.945Z,66.10
2018-10-05T21:44:03.199Z,66.60
2018-10-05T21:47:36.420Z,67.00
2018-10-05T21:51:09.657Z,67.30
2018-10-05T21:54:42.917Z,67.40
2018-10-05T21:58:16.218Z,67.50
2018-10-05T22:01:49.459Z,67.50
2018-10-05T22:05:22.692Z,67.70
2018-10-05T22:08:55.913Z,68.00
2018-10-05T22:12:29.732Z,68.10
2018-10-05T22:16:03.028Z,68.40
2018-10-05T22:19:36.329Z,68.50
2018-10-05T22:23:09.504Z,68.70
2018-10-05T22:26:42.732Z,69.10
2018-10-05T22:30:15.969Z,69.70
2018-10-05T22:33:49.228Z,70.20
2018-10-05T22:37:22.467Z,70.50
2018-10-05T22:40:55.725Z,70.90
2018-10-05T22:44:28.947Z,71.30
2018-10-05T22:48:02.186Z,71.60
2018-10-05T22:51:35.428Z,72.00
2018-10-05T22:55:08.657Z,71.60
2018-10-05T22:58:41.874Z,71.20
2018-10-05T23:02:15.107Z,71.20
2018-10-05T23:05:48.364Z,71.10
2018-10-05T23:09:21.590Z,71.00
2018-10-05T23:12:54.842Z,71.20
2018-10-05T23:16:28.075Z,71.30
2018-10-05T23:20:01.291Z,71.40
2018-10-05T23:23:34.554Z,71.90
2018-10-05T23:27:07.960Z,72.80
2018-10-05T23:30:41.193Z,73.40
2018-10-05T23:34:14.413Z,73.80
2018-10-05T23:37:47.656Z,74.00
2018-10-05T23:41:20.984Z,74.40
2018-10-05T23:44:54.198Z,74.60
2018-10-05T23:48:27.432Z,75.10
2018-10-05T23:52:09.524Z,75.50
2018-10-05T23:55:42.739Z,75.50
2018-10-05T23:59:15.965Z,75.60
